Portada
METAR-TAF:

METAR-TAF

Aeroports :

Piacenza, Itàlia

latitud: 44-55N, longitud: 009-44E, altitud: 134 m

Observació

L'informe es va fer fa 53 minuts, a les 06:55 UTC
Vent 1 kt del Oest
Temperatura 4°C
Humitat 100%
Pressió 998 hPa
Visibilitat 10 km o més
sense núvols per sota de 1500 mi sense presència de cumulonimbus.

METAR: LIMS 260655Z 27001KT CAVOK 04/04 Q0998 RMK SKC VIS MIN 9999 WIND THR30 24003KT BLU

Hora: 08:48 (07:48 UTC)


TAF: manca

Observacions i pronòstics meteorològics de més de 4000 aeroports (METAR i TAF).

Les estacions disponibles són els punts grocs i vermells al mapa.

Posi el ratolí al punt desitjat per veure el nom de l'estació.

Feu clic per veure les observacions i els pronòstics meteorològics.

Per canviar el mapa: feu clic els botons verds amb una creu de color negre per apropar; al botó verd amb un guió per allunyar la imatge; o en les fletxes verdes per a mapes adjacents.


METAR-TAF: